Time;durP1;ratioP1;P1;durP2;ratioP2;P2;SDS_P1;SDS_P2;PMS_P1;PMS_P2;Temp;Humidity;BMP_temperature;BMP_pressure;BME280_temperature;BME280_humidity;BME280_pressure;Samples;Min_cycle;Max_cycle;Signal;HPM_P1;HPM_P2
2021/05/23 00:02:18;;;;;;;16.60;15.80;;;8.90;99.90;;;;;;5060985;28;20458;-74
2021/05/23 00:04:45;;;;;;;16.23;15.53;;;8.90;99.90;;;;;;5053657;28;22385;-73
2021/05/23 00:07:12;;;;;;;16.07;15.37;;;9.00;99.90;;;;;;5060011;28;20469;-72
2021/05/23 00:09:40;;;;;;;15.80;15.10;;;9.10;99.90;;;;;;5064286;28;20824;-73
2021/05/23 00:12:07;;;;;;;16.33;15.53;;;9.10;99.90;;;;;;5058698;28;20478;-73
2021/05/23 00:14:35;;;;;;;16.03;15.33;;;9.10;99.90;;;;;;5056831;28;20995;-72
2021/05/23 00:17:02;;;;;;;15.60;14.90;;;9.10;99.90;;;;;;5063618;28;20485;-73
2021/05/23 00:19:29;;;;;;;15.47;14.77;;;9.10;99.90;;;;;;5056342;28;20555;-73
2021/05/23 00:21:56;;;;;;;15.50;14.80;;;9.10;99.90;;;;;;5063553;28;20462;-72
2021/05/23 00:24:24;;;;;;;15.13;14.43;;;9.10;99.90;;;;;;5056846;28;20809;-73
2021/05/23 00:26:51;;;;;;;15.40;14.70;;;9.10;99.90;;;;;;5061805;28;20519;-72
2021/05/23 00:29:17;;;;;;;15.10;14.40;;;9.10;99.90;;;;;;5057445;28;20751;-72
2021/05/23 00:31:45;;;;;;;15.13;14.43;;;9.10;99.90;;;;;;5059163;28;20506;-73
2021/05/23 00:34:11;;;;;;;14.47;13.87;;;9.10;99.90;;;;;;5056813;28;21081;-74
2021/05/23 00:36:39;;;;;;;14.97;14.27;;;9.20;99.90;;;;;;5056375;28;20459;-73
2021/05/23 00:39:07;;;;;;;14.90;14.30;;;9.20;99.90;;;;;;5059794;28;20963;-73
2021/05/23 00:41:33;;;;;;;14.60;14.00;;;9.20;99.90;;;;;;5064131;28;20501;-73
2021/05/23 00:44:00;;;;;;;14.60;14.00;;;9.30;99.90;;;;;;5054104;28;20773;-74
2021/05/23 00:46:26;;;;;;;16.83;15.73;;;9.20;99.90;;;;;;5060887;28;20454;-72
2021/05/23 00:48:52;;;;;;;16.70;15.80;;;9.30;99.90;;;;;;5057096;28;21079;-74
2021/05/23 00:51:19;;;;;;;16.53;15.53;;;9.30;99.90;;;;;;5056234;28;20488;-72
2021/05/23 00:53:46;;;;;;;16.80;15.70;;;9.40;99.90;;;;;;5061802;28;20495;-73
2021/05/23 00:56:17;;;;;;;16.30;15.33;;;9.30;99.90;;;;;;5063723;28;20466;-72
2021/05/23 00:58:43;;;;;;;16.63;15.50;;;9.30;99.90;;;;;;5056044;28;20472;-74
2021/05/23 01:01:15;;;;;;;16.57;15.67;;;9.40;99.90;;;;;;5059685;28;20466;-74
2021/05/23 01:03:57;;;;;;;15.80;14.90;;;9.30;99.90;;;;;;5057725;28;20470;-72
2021/05/23 01:06:24;;;;;;;15.17;14.17;;;9.40;99.90;;;;;;5056611;28;20809;-72
2021/05/23 01:08:52;;;;;;;16.17;15.20;;;9.40;99.90;;;;;;5061318;28;20466;-74
2021/05/23 01:11:57;;;;;;;17.53;16.53;;;9.50;99.90;;;;;;5061390;28;20471;-73
2021/05/23 01:14:47;;;;;;;17.57;16.43;;;9.40;99.90;;;;;;5023057;28;20494;-72
2021/05/23 01:17:15;;;;;;;17.13;16.20;;;9.40;99.90;;;;;;5056181;28;21129;-72
2021/05/23 01:20:00;;;;;;;17.00;16.10;;;9.30;99.90;;;;;;5055393;28;20462;-72
2021/05/23 01:22:34;;;;;;;17.13;16.20;;;9.40;99.90;;;;;;5055340;28;20664;-74
2021/05/23 01:25:10;;;;;;;17.50;16.40;;;9.40;99.90;;;;;;5056942;28;20659;-74
2021/05/23 01:27:38;;;;;;;16.63;15.73;;;9.40;99.90;;;;;;5059169;28;20473;-74
2021/05/23 01:30:07;;;;;;;16.43;15.53;;;9.40;99.90;;;;;;5062451;28;20493;-71
2021/05/23 01:32:35;;;;;;;16.27;15.20;;;9.40;99.90;;;;;;5058833;28;20499;-74
2021/05/23 01:35:08;;;;;;;16.03;15.13;;;9.40;99.90;;;;;;5055621;28;20461;-74
2021/05/23 01:37:35;;;;;;;18.43;17.43;;;9.40;99.90;;;;;;5056844;28;20486;-73
2021/05/23 01:40:03;;;;;;;18.73;17.67;;;9.40;99.90;;;;;;5059169;28;20553;-75
2021/05/23 01:42:32;;;;;;;16.90;16.10;;;9.40;99.90;;;;;;5055528;28;20543;-77
2021/05/23 01:45:00;;;;;;;16.43;15.63;;;9.40;99.90;;;;;;5059656;28;20882;-75
2021/05/23 01:47:26;;;;;;;16.80;16.00;;;9.40;99.90;;;;;;5061292;28;20471;-77
2021/05/23 01:49:54;;;;;;;16.37;15.57;;;9.40;99.90;;;;;;5057773;28;20557;-75
2021/05/23 01:52:20;;;;;;;16.23;15.53;;;9.30;99.90;;;;;;5058874;28;20477;-77
2021/05/23 01:54:47;;;;;;;15.87;15.17;;;9.30;99.90;;;;;;5057008;28;20462;-74
2021/05/23 01:57:13;;;;;;;16.03;15.33;;;9.30;99.90;;;;;;5063320;28;20453;-72
2021/05/23 01:59:41;;;;;;;15.87;15.17;;;9.20;99.90;;;;;;5059247;28;20461;-72
2021/05/23 02:02:08;;;;;;;16.27;15.57;;;9.20;99.90;;;;;;5055447;28;20466;-77
2021/05/23 02:04:34;;;;;;;15.23;14.53;;;9.30;99.90;;;;;;5058625;28;20472;-75
2021/05/23 02:07:01;;;;;;;15.33;14.63;;;9.30;99.90;;;;;;5051932;28;20461;-74
2021/05/23 02:09:27;;;;;;;15.40;14.70;;;9.30;99.90;;;;;;5057884;28;20995;-75
2021/05/23 02:11:56;;;;;;;15.00;14.30;;;9.20;99.90;;;;;;5064747;28;22408;-75
2021/05/23 02:14:22;;;;;;;14.43;13.83;;;9.20;99.90;;;;;;5058335;28;20468;-77
2021/05/23 02:16:54;;;;;;;13.87;13.27;;;9.20;99.90;;;;;;5058933;28;20455;-74
2021/05/23 02:19:21;;;;;;;13.87;13.27;;;9.20;99.90;;;;;;5056827;28;20470;-73
2021/05/23 02:21:49;;;;;;;13.03;12.53;;;9.20;99.90;;;;;;5055676;28;21028;-73
2021/05/23 02:24:16;;;;;;;14.20;13.60;;;9.20;99.90;;;;;;5058726;28;20489;-77
2021/05/23 02:26:43;;;;;;;14.10;13.50;;;9.20;99.90;;;;;;5058178;28;21077;-76
2021/05/23 02:29:10;;;;;;;14.00;13.40;;;9.20;99.90;;;;;;5053965;28;20945;-74
2021/05/23 02:31:36;;;;;;;14.10;13.50;;;9.20;99.90;;;;;;5060011;28;20465;-76
2021/05/23 02:34:04;;;;;;;14.40;13.80;;;9.20;99.90;;;;;;5057418;28;20497;-76
2021/05/23 02:36:31;;;;;;;14.03;13.43;;;9.20;99.90;;;;;;5054559;28;20463;-77
2021/05/23 02:38:57;;;;;;;13.53;12.93;;;9.20;99.90;;;;;;5056666;28;20545;-76
2021/05/23 02:41:24;;;;;;;13.50;12.90;;;9.20;99.90;;;;;;5057487;28;20487;-76
2021/05/23 02:43:51;;;;;;;14.10;13.50;;;9.20;99.90;;;;;;5060504;28;21354;-76
2021/05/23 02:46:18;;;;;;;13.17;12.67;;;9.30;99.90;;;;;;5058211;28;20461;-75
2021/05/23 02:48:44;;;;;;;14.30;13.70;;;9.30;99.90;;;;;;5063065;28;20493;-74
2021/05/23 02:51:12;;;;;;;15.40;14.70;;;9.40;99.90;;;;;;5054597;28;20485;-76
2021/05/23 02:53:38;;;;;;;15.20;14.53;;;9.40;99.90;;;;;;5054779;28;20494;-74
2021/05/23 02:56:05;;;;;;;15.00;14.40;;;9.30;99.90;;;;;;5062025;28;20456;-75
2021/05/23 02:58:32;;;;;;;15.70;15.00;;;9.40;99.90;;;;;;5059791;28;20466;-80
2021/05/23 03:00:58;;;;;;;16.03;15.33;;;9.40;99.90;;;;;;5057148;28;20469;-74
2021/05/23 03:03:25;;;;;;;15.67;14.97;;;9.50;99.90;;;;;;5054433;28;20559;-74
2021/05/23 03:05:52;;;;;;;15.13;14.47;;;9.30;99.90;;;;;;5058347;28;20821;-74
2021/05/23 03:08:19;;;;;;;16.37;15.67;;;9.40;99.90;;;;;;5060086;28;20469;-74
2021/05/23 03:10:47;;;;;;;16.80;16.10;;;9.40;99.90;;;;;;5060210;28;20462;-74
2021/05/23 03:13:14;;;;;;;16.67;15.97;;;9.40;99.90;;;;;;5053412;28;20888;-74
2021/05/23 03:15:41;;;;;;;15.47;14.77;;;9.50;99.90;;;;;;5060363;28;20592;-75
2021/05/23 03:18:08;;;;;;;16.10;15.40;;;9.50;99.90;;;;;;5056045;28;20491;-75
2021/05/23 03:20:37;;;;;;;16.07;15.37;;;9.40;99.90;;;;;;5051594;28;20459;-74
2021/05/23 03:23:03;;;;;;;15.77;15.07;;;9.40;99.90;;;;;;5062461;28;21723;-76
2021/05/23 03:25:31;;;;;;;14.80;14.20;;;9.40;99.90;;;;;;5066265;28;20458;-77
2021/05/23 03:27:59;;;;;;;14.73;14.13;;;9.50;99.90;;;;;;5060273;28;20790;-74
2021/05/23 03:30:28;;;;;;;14.43;13.83;;;9.50;99.90;;;;;;5062929;28;20870;-75
2021/05/23 03:32:54;;;;;;;14.80;14.20;;;9.40;99.90;;;;;;5061471;28;20482;-74
2021/05/23 03:35:21;;;;;;;14.90;14.30;;;9.50;99.90;;;;;;5058515;28;20473;-74
2021/05/23 03:37:47;;;;;;;15.70;15.00;;;9.60;99.90;;;;;;5062687;28;20465;-74
2021/05/23 03:40:17;;;;;;;14.40;13.80;;;9.50;99.90;;;;;;5064133;28;20980;-74
2021/05/23 03:42:46;;;;;;;14.90;14.30;;;9.50;99.90;;;;;;5062770;28;20532;-74
2021/05/23 03:45:14;;;;;;;14.80;14.20;;;9.40;99.90;;;;;;5054788;28;21032;-72
2021/05/23 03:47:40;;;;;;;14.67;14.07;;;9.40;99.90;;;;;;5058429;28;20504;-73
2021/05/23 03:50:09;;;;;;;14.87;14.27;;;9.40;99.90;;;;;;5064292;28;20457;-72
2021/05/23 03:52:36;;;;;;;15.20;14.60;;;9.50;99.90;;;;;;5059641;28;20496;-73
2021/05/23 03:55:04;;;;;;;15.10;14.43;;;9.60;99.90;;;;;;5058512;28;20525;-74
2021/05/23 03:57:30;;;;;;;15.13;14.53;;;9.60;99.90;;;;;;5059753;28;20467;-73
2021/05/23 03:59:57;;;;;;;14.90;14.30;;;9.50;99.90;;;;;;5057406;28;20468;-75
2021/05/23 04:02:24;;;;;;;14.80;14.20;;;9.60;99.90;;;;;;5059442;28;20524;-73
2021/05/23 04:04:56;;;;;;;15.20;14.60;;;9.70;99.90;;;;;;5054340;28;20470;-72
2021/05/23 04:07:23;;;;;;;14.13;13.53;;;9.60;99.90;;;;;;5060804;28;20459;-73
2021/05/23 04:09:51;;;;;;;14.00;13.40;;;9.60;99.90;;;;;;5056041;28;20476;-73
2021/05/23 04:12:20;;;;;;;14.50;13.90;;;9.70;99.90;;;;;;5062693;28;20462;-75
2021/05/23 04:14:47;;;;;;;15.30;14.60;;;9.70;99.90;;;;;;5060627;28;20467;-75
2021/05/23 04:17:14;;;;;;;14.90;14.30;;;9.70;99.90;;;;;;5057952;28;20475;-75
2021/05/23 04:19:40;;;;;;;15.70;15.00;;;9.70;99.90;;;;;;5057590;28;20459;-75
2021/05/23 04:22:06;;;;;;;15.30;14.60;;;9.70;99.90;;;;;;5056114;28;20463;-74
2021/05/23 04:24:35;;;;;;;15.37;14.67;;;9.60;99.90;;;;;;5062238;28;20470;-78
2021/05/23 04:27:02;;;;;;;14.90;14.30;;;9.70;99.90;;;;;;5064375;28;20520;-72
2021/05/23 04:29:28;;;;;;;14.73;14.13;;;9.80;99.90;;;;;;5062887;28;20861;-73
2021/05/23 04:31:55;;;;;;;15.33;14.63;;;9.60;99.90;;;;;;5059360;28;20800;-74
2021/05/23 04:34:22;;;;;;;14.90;14.27;;;9.60;99.90;;;;;;5060809;28;20572;-73
2021/05/23 04:36:48;;;;;;;14.90;14.23;;;9.70;99.90;;;;;;5055248;28;20477;-73
2021/05/23 04:39:15;;;;;;;14.00;13.40;;;9.70;99.90;;;;;;5060116;28;20463;-74
2021/05/23 04:41:42;;;;;;;14.30;13.70;;;9.60;99.90;;;;;;5062897;28;20488;-72
2021/05/23 04:44:08;;;;;;;13.97;13.37;;;9.50;99.90;;;;;;5059314;28;20466;-73
2021/05/23 04:46:34;;;;;;;13.90;13.30;;;9.60;99.90;;;;;;5061002;28;20855;-72
2021/05/23 04:49:01;;;;;;;13.53;12.93;;;9.50;99.90;;;;;;5058936;28;20463;-73
2021/05/23 04:51:28;;;;;;;13.50;12.90;;;9.50;99.90;;;;;;5063384;28;22264;-73
2021/05/23 04:53:54;;;;;;;13.67;13.07;;;9.40;99.90;;;;;;5063076;28;20597;-71
2021/05/23 04:56:21;;;;;;;13.77;13.17;;;9.30;99.90;;;;;;5058928;28;20446;-73
2021/05/23 04:58:49;;;;;;;13.83;13.23;;;9.30;99.90;;;;;;5059073;28;20471;-72
2021/05/23 05:01:15;;;;;;;13.90;13.30;;;9.20;99.90;;;;;;5059325;28;20458;-73
2021/05/23 05:03:41;;;;;;;13.97;13.37;;;9.20;99.90;;;;;;5057384;28;20471;-76
2021/05/23 05:06:07;;;;;;;14.23;13.63;;;9.20;99.90;;;;;;5060154;28;20528;-73
2021/05/23 05:08:35;;;;;;;14.07;13.47;;;9.10;99.90;;;;;;5061610;28;20461;-73
2021/05/23 05:11:02;;;;;;;14.10;13.50;;;9.10;99.90;;;;;;5054071;28;20447;-72
2021/05/23 05:13:29;;;;;;;13.63;13.03;;;9.00;99.90;;;;;;5056597;28;20498;-74
2021/05/23 05:15:56;;;;;;;14.60;14.00;;;9.10;99.90;;;;;;5063185;28;20806;-75
2021/05/23 05:18:22;;;;;;;14.10;13.50;;;9.10;99.90;;;;;;5061029;28;20962;-72
2021/05/23 05:20:49;;;;;;;13.93;13.33;;;9.00;99.90;;;;;;5061695;28;21204;-73
2021/05/23 05:23:15;;;;;;;14.00;13.40;;;9.10;99.90;;;;;;5056942;28;20477;-74
2021/05/23 05:25:43;;;;;;;14.87;14.17;;;9.10;99.90;;;;;;5059131;28;20456;-76
2021/05/23 05:28:09;;;;;;;14.27;13.67;;;9.10;99.90;;;;;;5053632;28;20471;-74
2021/05/23 05:30:36;;;;;;;15.03;14.33;;;9.00;99.90;;;;;;5063733;28;20550;-75
2021/05/23 05:33:02;;;;;;;15.53;14.83;;;9.10;99.90;;;;;;5065127;28;20485;-72
2021/05/23 05:35:29;;;;;;;15.77;15.07;;;9.10;99.90;;;;;;5059983;28;20855;-75
2021/05/23 05:37:55;;;;;;;15.47;14.77;;;9.00;99.90;;;;;;5057417;28;20473;-79
2021/05/23 05:40:22;;;;;;;15.37;14.67;;;9.00;99.90;;;;;;5059047;28;20491;-80
2021/05/23 05:42:49;;;;;;;14.10;13.50;;;9.10;99.90;;;;;;5061542;28;20462;-79
2021/05/23 05:45:16;;;;;;;14.60;14.00;;;9.10;99.90;;;;;;5063617;28;20469;-77
2021/05/23 05:47:42;;;;;;;14.00;13.40;;;9.10;99.90;;;;;;5063610;28;20454;-78
2021/05/23 05:50:09;;;;;;;13.50;12.90;;;9.20;99.90;;;;;;5061177;28;20528;-76
2021/05/23 05:52:36;;;;;;;13.37;12.77;;;9.20;99.90;;;;;;5060995;28;20883;-76
2021/05/23 05:55:03;;;;;;;13.43;12.83;;;9.20;99.90;;;;;;5061879;28;20465;-75
2021/05/23 05:57:29;;;;;;;13.03;12.53;;;9.30;99.90;;;;;;5060149;28;20470;-74
2021/05/23 05:59:57;;;;;;;12.87;12.37;;;9.20;99.90;;;;;;5056963;28;20657;-75
2021/05/23 06:02:24;;;;;;;13.30;12.70;;;9.20;99.90;;;;;;5060017;28;20809;-76
2021/05/23 06:04:50;;;;;;;13.53;12.93;;;9.20;99.90;;;;;;5056435;28;20467;-77
2021/05/23 06:07:18;;;;;;;14.07;13.47;;;9.20;99.90;;;;;;5048556;28;21046;-74
2021/05/23 06:09:44;;;;;;;13.87;13.27;;;9.20;99.90;;;;;;5050283;28;20464;-76
2021/05/23 06:12:11;;;;;;;13.87;13.27;;;9.00;99.90;;;;;;5052572;28;20461;-76
2021/05/23 06:14:38;;;;;;;13.40;12.80;;;8.90;99.90;;;;;;5054649;28;20945;-75
2021/05/23 06:17:05;;;;;;;13.33;12.77;;;8.90;99.90;;;;;;5059399;28;20515;-74
2021/05/23 06:19:32;;;;;;;13.43;12.83;;;9.00;99.90;;;;;;5055351;28;20452;-75
2021/05/23 06:21:59;;;;;;;13.30;12.70;;;9.10;99.90;;;;;;5053234;28;20484;-77
2021/05/23 06:24:25;;;;;;;13.07;12.57;;;9.10;99.90;;;;;;5056638;28;20464;-75
2021/05/23 06:26:52;;;;;;;12.67;12.17;;;9.20;99.90;;;;;;5058147;28;20469;-74
2021/05/23 06:29:19;;;;;;;13.20;12.60;;;9.30;99.90;;;;;;5057172;28;20447;-76
2021/05/23 06:31:46;;;;;;;12.30;11.80;;;9.40;99.90;;;;;;5057388;28;20465;-74
2021/05/23 06:34:14;;;;;;;13.10;12.50;;;9.40;99.90;;;;;;5059051;28;20937;-74
2021/05/23 06:36:40;;;;;;;13.20;12.60;;;9.50;99.90;;;;;;5056078;28;20624;-74
2021/05/23 06:39:08;;;;;;;12.30;11.80;;;9.60;99.90;;;;;;5053252;28;20489;-75
2021/05/23 06:41:35;;;;;;;13.07;12.50;;;9.80;99.90;;;;;;5064431;28;20473;-76
2021/05/23 06:44:03;;;;;;;12.60;12.10;;;9.80;99.90;;;;;;5057191;28;20466;-73
2021/05/23 06:46:29;;;;;;;12.03;11.53;;;9.80;99.90;;;;;;5059837;28;20470;-74
2021/05/23 06:48:56;;;;;;;17.33;16.00;;;9.90;99.90;;;;;;5054498;28;20454;-73
2021/05/23 06:51:23;;;;;;;18.43;15.63;;;10.00;99.90;;;;;;5049815;28;20481;-75
2021/05/23 06:53:49;;;;;;;20.97;14.63;;;10.10;99.90;;;;;;5059748;28;20487;-75
2021/05/23 06:56:16;;;;;;;17.40;16.00;;;10.20;99.90;;;;;;5056010;28;20512;-74
2021/05/23 06:58:43;;;;;;;17.37;15.83;;;10.10;99.90;;;;;;5061015;28;20499;-75
2021/05/23 07:01:09;;;;;;;18.07;16.43;;;10.20;99.90;;;;;;5060717;28;20517;-76
2021/05/23 07:03:35;;;;;;;16.23;15.30;;;10.20;99.90;;;;;;5056331;28;20473;-74
2021/05/23 07:06:02;;;;;;;16.93;15.47;;;10.20;99.90;;;;;;5063294;28;20463;-73
2021/05/23 07:08:30;;;;;;;16.87;15.47;;;10.20;99.90;;;;;;5059211;28;20465;-75
2021/05/23 07:10:56;;;;;;;15.67;14.53;;;10.30;99.90;;;;;;5054536;28;20860;-74
2021/05/23 07:13:23;;;;;;;19.13;15.30;;;10.40;99.90;;;;;;5060746;28;20738;-73
2021/05/23 07:15:51;;;;;;;16.53;15.03;;;10.40;99.90;;;;;;5056966;28;20466;-77
2021/05/23 07:18:17;;;;;;;15.70;14.10;;;10.50;99.90;;;;;;5058526;28;20541;-74
2021/05/23 07:20:44;;;;;;;15.03;14.13;;;10.70;99.90;;;;;;5060802;28;20561;-77
2021/05/23 07:23:12;;;;;;;14.43;13.53;;;10.70;99.90;;;;;;5058661;28;21488;-74
2021/05/23 07:25:39;;;;;;;14.10;13.03;;;10.80;99.90;;;;;;5064796;28;20543;-75
2021/05/23 07:28:06;;;;;;;14.20;12.93;;;10.90;99.90;;;;;;5061332;28;20976;-73
2021/05/23 07:30:33;;;;;;;13.20;12.20;;;10.90;99.90;;;;;;5060304;28;20809;-74
2021/05/23 07:32:59;;;;;;;14.73;13.27;;;11.10;99.90;;;;;;5056787;28;20848;-74
2021/05/23 07:35:25;;;;;;;14.23;13.17;;;11.30;99.90;;;;;;5053507;28;20465;-75
2021/05/23 07:37:52;;;;;;;14.43;13.23;;;11.30;99.90;;;;;;5059009;28;20542;-74
2021/05/23 07:40:18;;;;;;;13.80;12.70;;;11.30;99.90;;;;;;5062903;28;20482;-74
2021/05/23 07:42:45;;;;;;;13.23;12.33;;;11.50;99.90;;;;;;5058621;28;20521;-74
2021/05/23 07:45:13;;;;;;;12.80;12.00;;;11.70;99.90;;;;;;5059290;28;22063;-74
2021/05/23 07:47:39;;;;;;;13.63;12.70;;;11.90;99.90;;;;;;5056319;28;20467;-74
2021/05/23 07:50:08;;;;;;;13.40;12.57;;;12.00;99.90;;;;;;5053249;28;20532;-75
2021/05/23 07:52:35;;;;;;;14.37;13.37;;;11.90;99.90;;;;;;5052335;28;20483;-73
2021/05/23 07:55:02;;;;;;;13.83;12.83;;;11.90;99.90;;;;;;5049780;28;20791;-76
2021/05/23 07:57:28;;;;;;;13.10;12.30;;;11.90;99.90;;;;;;5048895;28;20990;-74
2021/05/23 07:59:56;;;;;;;13.97;12.87;;;12.00;99.90;;;;;;5049035;28;20468;-74
2021/05/23 08:02:22;;;;;;;13.90;13.00;;;12.00;99.90;;;;;;5051297;28;20791;-75
2021/05/23 08:04:48;;;;;;;15.37;13.97;;;12.20;99.90;;;;;;5055867;28;20459;-76
2021/05/23 08:07:15;;;;;;;14.23;13.40;;;12.20;99.90;;;;;;5055707;28;20463;-74
2021/05/23 08:09:41;;;;;;;13.97;13.03;;;12.30;99.90;;;;;;5051187;28;20470;-74
2021/05/23 08:12:08;;;;;;;14.53;13.43;;;12.50;99.90;;;;;;5053498;28;21357;-74
2021/05/23 08:14:34;;;;;;;14.27;13.13;;;12.90;99.90;;;;;;5058575;28;21028;-74
2021/05/23 08:17:02;;;;;;;15.33;13.73;;;13.20;99.90;;;;;;5049691;28;20585;-76
2021/05/23 08:19:28;;;;;;;14.83;13.70;;;13.70;99.90;;;;;;5051181;28;20494;-74
2021/05/23 08:21:54;;;;;;;13.10;11.90;;;14.00;99.90;;;;;;5053318;28;20458;-73
2021/05/23 08:24:21;;;;;;;12.83;12.23;;;13.50;99.90;;;;;;5053048;28;20463;-74
2021/05/23 08:26:48;;;;;;;14.70;13.70;;;13.70;99.90;;;;;;5052305;28;20907;-74
2021/05/23 08:29:14;;;;;;;14.20;13.00;;;13.90;99.90;;;;;;5050867;28;20460;-74
2021/05/23 08:31:41;;;;;;;12.97;12.27;;;14.10;99.90;;;;;;5054930;28;20711;-76
2021/05/23 08:34:08;;;;;;;13.00;12.27;;;14.00;99.90;;;;;;5058414;28;20498;-71
2021/05/23 08:36:35;;;;;;;13.80;12.97;;;14.00;99.90;;;;;;5054131;28;20520;-75
2021/05/23 08:39:02;;;;;;;13.60;12.77;;;13.60;99.90;;;;;;5053206;28;20467;-75
2021/05/23 08:41:28;;;;;;;13.53;12.60;;;13.50;99.90;;;;;;5054102;28;20479;-75
2021/05/23 08:43:55;;;;;;;14.30;13.20;;;13.90;99.90;;;;;;5051829;28;20481;-75
2021/05/23 08:46:22;;;;;;;14.67;13.17;;;13.80;99.90;;;;;;5054929;28;20459;-75
2021/05/23 08:48:48;;;;;;;14.23;13.43;;;14.00;99.90;;;;;;5049833;28;20452;-76
2021/05/23 08:51:16;;;;;;;14.40;13.50;;;14.50;99.90;;;;;;5053852;28;20488;-76
2021/05/23 08:53:44;;;;;;;14.87;13.57;;;14.90;99.90;;;;;;5057302;28;20520;-77
2021/05/23 08:56:10;;;;;;;14.83;14.13;;;14.80;99.90;;;;;;5052659;28;20816;-75
2021/05/23 08:58:36;;;;;;;14.60;13.73;;;14.40;99.90;;;;;;5052567;28;20491;-75
2021/05/23 09:01:03;;;;;;;14.30;13.57;;;14.20;99.90;;;;;;5047866;28;20460;-74
2021/05/23 09:03:29;;;;;;;14.53;13.53;;;14.20;99.90;;;;;;5049046;28;20501;-75
2021/05/23 09:05:56;;;;;;;15.17;14.30;;;14.10;99.90;;;;;;5049459;28;20459;-74
2021/05/23 09:08:27;;;;;;;13.87;13.27;;;13.80;99.90;;;;;;5046361;28;20675;-74
2021/05/23 09:10:56;;;;;;;15.37;14.37;;;13.80;99.90;;;;;;5047153;28;20521;-73
2021/05/23 09:13:30;;;;;;;16.00;14.63;;;13.90;99.90;;;;;;5050389;28;20491;-73
2021/05/23 09:15:59;;;;;;;16.33;15.33;;;13.90;99.90;;;;;;5051644;28;20464;-73
2021/05/23 09:18:25;;;;;;;15.70;14.40;;;13.60;99.90;;;;;;5052330;28;20455;-74
2021/05/23 09:21:01;;;;;;;15.77;14.67;;;13.40;99.90;;;;;;5051308;28;20463;-73
2021/05/23 09:23:28;;;;;;;15.70;14.73;;;13.70;99.90;;;;;;5052214;28;20455;-74
2021/05/23 09:25:54;;;;;;;15.17;14.17;;;13.90;99.90;;;;;;5050809;28;20448;-72
2021/05/23 09:28:29;;;;;;;14.93;13.83;;;14.00;99.90;;;;;;5051098;28;20517;-73
2021/05/23 09:30:57;;;;;;;14.63;13.60;;;14.60;99.90;;;;;;5050273;28;20990;-73
2021/05/23 09:33:23;;;;;;;17.00;15.60;;;14.40;99.90;;;;;;5050143;28;20488;-75
2021/05/23 09:35:53;;;;;;;15.90;14.80;;;14.00;99.90;;;;;;5051536;28;20982;-74
2021/05/23 09:38:20;;;;;;;16.90;15.50;;;13.80;99.90;;;;;;5051797;28;20455;-73
2021/05/23 09:40:47;;;;;;;16.47;15.10;;;13.70;99.90;;;;;;5049562;28;21252;-73
2021/05/23 09:43:19;;;;;;;15.83;14.93;;;13.70;99.90;;;;;;5051375;28;20822;-74
2021/05/23 09:45:47;;;;;;;15.07;14.17;;;14.40;99.90;;;;;;5052447;28;20455;-74
2021/05/23 09:48:18;;;;;;;14.93;14.13;;;15.70;99.90;;;;;;5043451;28;20463;-74
2021/05/23 09:50:46;;;;;;;13.80;13.00;;;16.50;99.90;;;;;;5049399;28;20892;-74
2021/05/23 09:53:24;;;;;;;14.17;13.47;;;17.50;99.90;;;;;;5051767;28;21056;-74
2021/05/23 09:55:58;;;;;;;16.17;15.17;;;18.40;99.90;;;;;;5050776;28;20491;-74
2021/05/23 09:58:27;;;;;;;15.37;14.47;;;18.50;99.90;;;;;;5053151;28;20466;-73
2021/05/23 10:00:53;;;;;;;16.30;15.40;;;18.30;99.90;;;;;;5054312;28;21528;-75
2021/05/23 10:03:25;;;;;;;18.17;16.47;;;16.80;99.90;;;;;;5051633;28;20468;-75
2021/05/23 10:05:52;;;;;;;17.20;16.20;;;16.10;99.90;;;;;;5048553;28;20471;-76
2021/05/23 10:08:19;;;;;;;17.63;16.73;;;15.40;99.90;;;;;;5049926;28;20563;-75
2021/05/23 10:10:46;;;;;;;17.57;16.57;;;14.90;99.90;;;;;;5048924;28;20836;-74
2021/05/23 10:13:14;;;;;;;17.27;15.70;;;15.00;99.90;;;;;;5049459;28;20494;-75
2021/05/23 10:15:40;;;;;;;17.40;16.10;;;14.70;99.90;;;;;;5055481;28;20455;-75
2021/05/23 10:18:08;;;;;;;17.13;16.10;;;14.60;99.90;;;;;;5051883;28;20867;-75
2021/05/23 10:20:35;;;;;;;18.20;16.83;;;14.50;99.90;;;;;;5047114;28;20466;-75
2021/05/23 10:23:15;;;;;;;17.27;16.20;;;14.00;99.90;;;;;;5052954;28;20474;-74
2021/05/23 10:25:47;;;;;;;16.63;15.63;;;13.90;99.90;;;;;;5050556;28;20452;-74
2021/05/23 10:28:15;;;;;;;16.90;15.90;;;13.80;99.90;;;;;;5052623;28;20526;-74
2021/05/23 10:30:50;;;;;;;18.30;16.70;;;13.50;99.90;;;;;;5059884;28;20458;-74
2021/05/23 10:33:17;;;;;;;15.80;14.80;;;13.30;99.90;;;;;;5054746;28;20478;-75
2021/05/23 10:35:44;;;;;;;16.53;15.57;;;13.90;99.90;;;;;;5046961;28;20465;-75
2021/05/23 10:38:13;;;;;;;14.70;13.80;;;14.40;99.90;;;;;;5049223;28;20471;-75
2021/05/23 10:40:51;;;;;;;15.93;14.77;;;15.50;99.90;;;;;;5052551;28;20682;-75
2021/05/23 10:43:23;;;;;;;14.70;13.60;;;15.70;99.90;;;;;;5056254;28;20917;-73
2021/05/23 10:45:50;;;;;;;16.60;15.20;;;16.10;99.90;;;;;;5055774;28;20857;-75
2021/05/23 10:48:18;;;;;;;15.70;14.60;;;16.90;99.90;;;;;;5050249;28;20569;-74
2021/05/23 10:50:47;;;;;;;15.30;14.43;;;16.70;99.90;;;;;;5044546;28;20455;-74
2021/05/23 10:53:14;;;;;;;15.43;14.43;;;16.50;99.90;;;;;;5048258;28;20674;-73
2021/05/23 10:55:53;;;;;;;16.07;13.80;;;16.10;99.90;;;;;;5055000;28;20491;-75
2021/05/23 10:58:23;;;;;;;15.13;14.13;;;16.10;99.80;;;;;;5051452;28;20470;-74
2021/05/23 11:00:52;;;;;;;16.17;14.87;;;16.40;99.90;;;;;;5052171;28;20654;-73
2021/05/23 11:03:20;;;;;;;15.43;14.43;;;16.60;99.90;;;;;;5050302;28;20459;-73
2021/05/23 11:05:47;;;;;;;15.80;15.00;;;16.80;99.90;;;;;;5048567;28;20524;-73
2021/05/23 11:08:15;;;;;;;15.53;14.53;;;16.90;99.90;;;;;;5051598;28;20484;-73
2021/05/23 11:10:43;;;;;;;15.43;14.30;;;17.50;99.90;;;;;;5057086;28;20482;-73
2021/05/23 11:13:11;;;;;;;15.80;14.90;;;18.10;98.40;;;;;;5049288;28;20569;-73
2021/05/23 11:15:43;;;;;;;15.63;14.93;;;17.60;98.40;;;;;;5050059;28;20892;-72
2021/05/23 11:18:14;;;;;;;16.67;15.80;;;17.20;97.80;;;;;;5044679;28;20459;-73
2021/05/23 11:20:41;;;;;;;15.60;14.63;;;16.80;99.00;;;;;;5045595;28;20460;-71
2021/05/23 11:23:08;;;;;;;15.37;14.47;;;17.10;99.70;;;;;;5047023;28;20833;-72
2021/05/23 11:25:37;;;;;;;15.60;14.80;;;17.60;98.30;;;;;;5053525;28;20551;-72
2021/05/23 11:28:05;;;;;;;16.17;15.27;;;17.50;96.30;;;;;;5044800;28;20462;-71
2021/05/23 11:30:34;;;;;;;14.97;14.13;;;17.00;97.70;;;;;;5053632;28;20463;-71
2021/05/23 11:33:07;;;;;;;15.23;14.13;;;17.20;98.20;;;;;;5048870;28;20468;-72
2021/05/23 11:35:38;;;;;;;14.47;13.63;;;17.70;97.70;;;;;;5055263;28;20466;-71
2021/05/23 11:38:04;;;;;;;13.90;13.20;;;18.00;98.10;;;;;;5052540;28;20462;-71
2021/05/23 11:40:33;;;;;;;15.10;14.20;;;18.60;96.80;;;;;;5050021;28;20479;-71
2021/05/23 11:43:14;;;;;;;14.80;13.90;;;18.60;94.80;;;;;;5047589;28;20791;-71
2021/05/23 11:45:53;;;;;;;14.60;13.90;;;18.30;93.80;;;;;;5051596;28;20467;-72
2021/05/23 11:48:31;;;;;;;14.53;13.83;;;18.80;95.10;;;;;;5051513;28;20659;-72
2021/05/23 11:50:57;;;;;;;15.80;15.00;;;17.90;94.80;;;;;;5054505;28;20471;-72
2021/05/23 11:53:44;;;;;;;14.73;13.93;;;17.20;94.20;;;;;;5058657;28;20581;-71
2021/05/23 11:56:14;;;;;;;15.83;14.73;;;16.70;96.00;;;;;;5055447;28;20470;-72
2021/05/23 11:58:45;;;;;;;14.90;14.10;;;17.00;96.70;;;;;;5051070;28;20459;-72
2021/05/23 12:01:13;;;;;;;16.03;14.73;;;17.80;97.40;;;;;;5050442;28;20868;-71
2021/05/23 12:03:40;;;;;;;14.90;14.20;;;17.60;96.60;;;;;;5052737;28;20471;-71
2021/05/23 12:06:16;;;;;;;15.77;14.90;;;17.20;96.80;;;;;;5054838;28;20455;-72
2021/05/23 12:08:43;;;;;;;15.50;14.50;;;16.90;96.90;;;;;;5057483;28;20535;-72
2021/05/23 12:11:10;;;;;;;14.30;13.50;;;17.10;97.20;;;;;;5058907;28;20905;-72
2021/05/23 12:13:38;;;;;;;15.40;14.30;;;17.50;97.30;;;;;;5053807;28;20903;-72
2021/05/23 12:16:06;;;;;;;14.73;14.03;;;18.10;97.70;;;;;;5056461;28;20478;-71
2021/05/23 12:18:38;;;;;;;15.50;14.60;;;18.30;97.30;;;;;;5057510;28;20473;-72
2021/05/23 12:21:07;;;;;;;14.80;13.90;;;18.10;96.40;;;;;;5046032;28;20490;-72
2021/05/23 12:23:34;;;;;;;15.20;14.13;;;18.10;96.70;;;;;;5052586;28;20468;-72
2021/05/23 12:26:05;;;;;;;13.70;12.80;;;18.40;97.10;;;;;;5053604;28;20561;-72
2021/05/23 12:28:35;;;;;;;14.17;13.37;;;19.40;96.30;;;;;;5051329;28;21017;-72
2021/05/23 12:31:04;;;;;;;15.60;14.80;;;19.60;93.40;;;;;;5053806;28;20464;-72
2021/05/23 12:33:31;;;;;;;14.70;13.63;;;19.50;92.90;;;;;;5053802;28;20483;-72
2021/05/23 12:36:07;;;;;;;14.90;14.20;;;19.60;94.30;;;;;;5056667;28;20558;-72
2021/05/23 12:38:34;;;;;;;15.47;14.67;;;18.70;93.70;;;;;;5052386;28;20888;-72